메인 페이지
METAR-TAF:

METAR-TAF

공항 :

이라클리오, 그리스

위도: 35-20N, 경도: 025-11E, 고도: 37m

현재 날씨관측

예보는 28분 전, 00:50시(UTC)에 발표되었습니다.
남동5kt
온도 25°C
습도 61%
기압 1015 hPa
시정 10km 이상
고도 2500ft 상공 구름 조금

METAR: LGIR 290050Z 13005KT 9999 FEW025 25/17 Q1015 NOSIG

시각: 04:18 (01:18 UTC)

예보

예보는 2 시간 18분 전, 23:00시(UTC)에 발표되었습니다.
예보 대상 시간: 29일 00시부터 29일 24시까지 (UTC)
8kt
시정 10km 이상
고도 2000ft 상공 구름 조금
고도 8000ft 상공 구름 보통
전환 중
29일 02시부터 29일 04시까지 (UTC)
북서8kt
전환 중
29일 06시부터 29일 08시까지 (UTC)
북서15kt
일시적
29일 18시부터 29일 22시까지 (UTC)
북서15kt, 순간 최대 풍속 25kt

TAF: LGIR 282300Z 2900/2924 17008KT 9999 FEW020 SCT080 BECMG 2902/2904 32008KT BECMG 2906/2908 32015KT TEMPO 2918/2922 32015G25KT

4,000개 이상의 공항 관측 자료 및 예보 (METAR 및 TAF 보고).

지도상에서 검색 가능한 기상관측소가 노란 점과 빨간 점으로 표시되어 있습니다.

기상관측소 명을 보려면 표시 위로 마우스를 이동하세요.

날씨 관측과 예보를 보려면 클릭하세요.

지도 변경 : 확대하려면 엑스 표시가 있는 녹색 버튼, 축소하려면 빼기 표시가 있는 녹색 버튼, 다음 페이지의 지도를 보려면 녹색 화살표를 클릭하세요.


METAR-TAF: